Mikiona — WDD5057 — position and weather

sailwx.info

Track history (hours):
 
Tides and Currents Weather Stations Pressure Air Temp Water Temp Dewpoint Dewpoint Depression Visibility Wind Speed Wind Dir Waves Ship Positions

Mikiona

Owner: Sause Bros Inc, Coos Bay, OR. More information available from US FCC via Universal Licensing System and Coast Guard Vessel Documentation Center.

Last reported at 2017-Dec-18 16:25 UTC. Time now 2017-Dec-18 16:54 UTC.
Position N 37°09' W 122°57'.

Length 38 m; draft 4.5 m.

Type: Tow > 200 m length. MMSI: 367153070.

Date/timePositionNaut miles runAvg speedWind from/ knotsBaromVisibWave heightAir tempDewpointWater temp
2017-Dec-18 16:25N 37°09' W 122°57'27 8.3
2017-Dec-18 13:12N 36°44' W 122°43'2 8.2
2017-Dec-18 13:00N 36°42' W 122°43'4 7.5
2017-Dec-18 12:25N 36°38' W 122°40'3 7.5
2017-Dec-18 11:59N 36°35' W 122°39'4 7.5
2017-Dec-18 11:30N 36°32' W 122°37'4 7.7
2017-Dec-18 11:00N 36°29' W 122°35'4 7.7
2017-Dec-18 10:30N 36°25' W 122°33'4 7.6
2017-Dec-18 09:59N 36°22' W 122°30'4 7.6
2017-Dec-18 09:30N 36°18' W 122°29'4 7.6
2017-Dec-18 09:00N 36°15' W 122°27'4 7.5
2017-Dec-18 08:30N 36°11' W 122°25'4 7.1
2017-Dec-18 08:00N 36°08' W 122°23'4 7.0
2017-Dec-18 07:30N 36°05' W 122°21'4 7.1
2017-Dec-18 07:00N 36°02' W 122°19'4 7.1
2017-Dec-18 06:30N 35°59' W 122°17'4 7.1
2017-Dec-18 06:00N 35°56' W 122°14'4 7.3
2017-Dec-18 05:30N 35°53' W 122°12'4 7.4
2017-Dec-18 05:00N 35°50' W 122°09'4 7.4
2017-Dec-18 04:30N 35°47' W 122°07'4 7.0
2017-Dec-18 04:00N 35°44' W 122°05'3 6.9
2017-Dec-18 03:30N 35°41' W 122°03'3 6.9
2017-Dec-18 03:00N 35°38' W 122°00'3 6.8
2017-Dec-18 02:30N 35°35' W 121°58'4 7.2
2017-Dec-18 02:00N 35°31' W 121°56'4 7.1
2017-Dec-18 01:30N 35°28' W 121°54'3 6.9
2017-Dec-18 01:00N 35°25' W 121°52'3 6.7
2017-Dec-18 00:30N 35°23' W 121°50'3 6.7
2017-Dec-18 00:00N 35°20' W 121°48'3 6.5
2017-Dec-17 23:29N 35°17' W 121°45'3 6.3
2017-Dec-17 22:59N 35°14' W 121°43'20 6.2
2017-Dec-17 19:48N 34°57' W 121°31'11 5.9
2017-Dec-17 17:59N 34°48' W 121°24'5 5.8
2017-Dec-17 17:10N 34°44' W 121°21'1 5.8
2017-Dec-17 17:00N 34°43' W 121°21'3 5.7
2017-Dec-17 16:30N 34°41' W 121°19'3 5.6
2017-Dec-17 16:00N 34°38' W 121°17'3 5.6
2017-Dec-17 15:29N 34°36' W 121°16'3 5.3
2017-Dec-17 15:00N 34°34' W 121°14'3 5.1
2017-Dec-17 14:30N 34°32' W 121°12'3 5.2
2017-Dec-17 14:00N 34°29' W 121°10'2 4.9
2017-Dec-17 13:30N 34°27' W 121°09'2 4.7
2017-Dec-17 13:00N 34°25' W 121°08'2 4.8
2017-Dec-17 12:30N 34°23' W 121°06'2 4.7
2017-Dec-17 12:00N 34°21' W 121°05'2 4.6
2017-Dec-17 11:30N 34°19' W 121°03'2 4.6
2017-Dec-17 11:00N 34°17' W 121°02'2 4.7
2017-Dec-17 10:30N 34°15' W 121°00'2 4.5
2017-Dec-17 10:00N 34°13' W 120°59'2 4.9
2017-Dec-17 09:30N 34°11' W 120°57'2 4.9
2017-Dec-17 09:00N 34°09' W 120°56'2 4.7
2017-Dec-17 08:30N 34°07' W 120°55'2 4.7
2017-Dec-17 08:00N 34°05' W 120°53'2 4.5
2017-Dec-17 07:30N 34°03' W 120°52'2 4.4
2017-Dec-17 07:00N 34°02' W 120°50'2 4.8
2017-Dec-17 06:30N 34°00' W 120°47'2 4.7
2017-Dec-17 06:00N 33°59' W 120°45'2 4.6
2017-Dec-17 05:30N 33°58' W 120°42'2 4.7
2017-Dec-17 05:00N 33°57' W 120°40'2 5.0
2017-Dec-17 04:30N 33°56' W 120°37'2 4.6
2017-Dec-17 04:00N 33°55' W 120°35'2 4.7
2017-Dec-17 03:30N 33°53' W 120°33'2 4.5
2017-Dec-17 03:00N 33°52' W 120°30'2 4.5
2017-Dec-17 02:30N 33°51' W 120°28'2 4.5
2017-Dec-17 02:00N 33°50' W 120°25'2 4.6
2017-Dec-17 01:30N 33°49' W 120°23'2 4.6
2017-Dec-17 01:00N 33°48' W 120°21'2 4.6
2017-Dec-17 00:30N 33°47' W 120°18'2 4.6
2017-Dec-17 00:00N 33°46' W 120°16'2 4.4
2017-Dec-16 23:30N 33°45' W 120°13'2 4.4
2017-Dec-16 22:59N 33°44' W 120°11'2 4.6
2017-Dec-16 22:30N 33°43' W 120°08'3 4.9
2017-Dec-16 21:57N 33°43' W 120°05'3 5.3
2017-Dec-16 21:29N 33°43' W 120°02'3 5.8
2017-Dec-16 21:00N 33°43' W 119°59'3 6.1
2017-Dec-16 20:30N 33°43' W 119°55'4 6.9
2017-Dec-16 19:59N 33°43' W 119°51'3 7.2
2017-Dec-16 19:30N 33°42' W 119°47'4 7.8
2017-Dec-16 19:00N 33°42' W 119°42'4 7.9
2017-Dec-16 18:30N 33°42' W 119°37'4 8.0
2017-Dec-16 18:00N 33°42' W 119°32'4 8.0
2017-Dec-16 17:30N 33°42' W 119°27'4 8.0
2017-Dec-16 17:00N 33°42' W 119°23'4 8.4
2017-Dec-16 16:30N 33°42' W 119°18'4 8.3
2017-Dec-16 16:00N 33°42' W 119°13'4 8.3
2017-Dec-16 15:30N 33°41' W 119°08'4 8.7
2017-Dec-16 15:00N 33°41' W 119°02'4 8.7
2017-Dec-16 14:30N 33°41' W 118°57'4 8.4
2017-Dec-16 14:00N 33°41' W 118°52'4 8.5
2017-Dec-16 13:30N 33°40' W 118°47'4 8.5
2017-Dec-16 13:00N 33°40' W 118°42'9 8.8
2017-Dec-16 12:00N 33°40' W 118°31'5 8.7
2017-Dec-16 11:27N 33°40' W 118°26'9 6.6
2017-Dec-16 10:01N 33°42' W 118°15'0 6.5
2017-Dec-16 09:57N 33°43' W 118°15'1 2.2
2017-Dec-16 09:24N 33°44' W 118°16'4 0.1
2017-Dec-14 10:03N 33°46' W 118°13'0 0.0
2017-Dec-14 06:45N 33°46' W 118°13'0 0.0
2017-Dec-14 06:21N 33°46' W 118°13'12 0.3
2017-Dec-12 07:49N 33°36' W 118°21'2 8.0
2017-Dec-12 07:30N 33°36' W 118°24'4 8.1
2017-Dec-12 07:00N 33°36' W 118°29'4 8.0
2017-Dec-12 06:30N 33°36' W 118°34'4 7.9
2017-Dec-12 06:00N 33°36' W 118°39'4 8.1
2017-Dec-12 05:30N 33°37' W 118°44'4 8.3
2017-Dec-12 05:01N 33°37' W 118°49'4 8.2
2017-Dec-12 04:30N 33°38' W 118°54'4 8.1
2017-Dec-12 04:00N 33°38' W 118°58'4 8.0
2017-Dec-12 03:30N 33°38' W 119°03'4 8.4
2017-Dec-12 03:00N 33°38' W 119°08'4 8.2
2017-Dec-12 02:30N 33°39' W 119°13'4 7.9
2017-Dec-12 02:00N 33°39' W 119°18'4 8.1
2017-Dec-12 01:30N 33°39' W 119°23'4 8.0
2017-Dec-12 01:00N 33°39' W 119°27'4 8.1
2017-Dec-12 00:30N 33°39' W 119°32'4 8.2
2017-Dec-12 00:00N 33°38' W 119°37'4 8.3
2017-Dec-11 23:30N 33°38' W 119°42'4 8.0
2017-Dec-11 22:59N 33°38' W 119°47'4 7.8
2017-Dec-11 22:30N 33°37' W 119°52'4 8.1
2017-Dec-11 21:59N 33°37' W 119°57'4 8.0
2017-Dec-11 21:30N 33°39' W 120°01'4 8.0
2017-Dec-11 21:00N 33°40' W 120°05'4 7.8
2017-Dec-11 20:30N 33°42' W 120°10'4 7.4
2017-Dec-11 20:00N 33°43' W 120°14'4 7.6
2017-Dec-11 19:30N 33°44' W 120°18'4 7.5
2017-Dec-11 19:00N 33°44' W 120°23'4 7.4
2017-Dec-11 18:30N 33°44' W 120°27'4 7.6
2017-Dec-11 18:00N 33°45' W 120°32'4 7.9
2017-Dec-11 17:30N 33°45' W 120°36'4 7.4
2017-Dec-11 17:00N 33°47' W 120°40'4 7.8
2017-Dec-11 16:30N 33°51' W 120°42'4 7.8
2017-Dec-11 16:00N 33°54' W 120°45'4 7.7
2017-Dec-11 15:30N 33°57' W 120°47'4 7.7
2017-Dec-11 15:01N 34°01' W 120°50'4 7.7
2017-Dec-11 14:31N 34°04' W 120°52'4 7.9
2017-Dec-11 14:00N 34°07' W 120°55'4 8.0
2017-Dec-11 13:31N 34°11' W 120°57'4 7.8
2017-Dec-11 13:01N 34°14' W 121°00'4 7.6
2017-Dec-11 12:31N 34°17' W 121°03'4 7.8
2017-Dec-11 12:00N 34°20' W 121°05'4 7.6
2017-Dec-11 11:30N 34°23' W 121°08'4 7.7
2017-Dec-11 11:00N 34°27' W 121°10'4 7.9
2017-Dec-11 10:30N 34°30' W 121°13'4 8.0
2017-Dec-11 10:01N 34°33' W 121°16'4 8.0
2017-Dec-11 09:30N 34°37' W 121°18'4 8.0
2017-Dec-11 09:00N 34°40' W 121°21'4 8.0
2017-Dec-11 08:30N 34°43' W 121°23'4 8.0
2017-Dec-11 08:00N 34°47' W 121°26'4 7.9
2017-Dec-11 07:30N 34°50' W 121°29'4 7.7
2017-Dec-11 07:00N 34°53' W 121°32'4 7.9
2017-Dec-11 06:30N 34°57' W 121°34'4 8.0
2017-Dec-11 06:00N 34°60' W 121°37'4 8.0
2017-Dec-11 05:30N 35°03' W 121°40'4 8.0
2017-Dec-11 05:00N 35°07' W 121°42'4 7.9
2017-Dec-11 04:30N 35°10' W 121°45'5 7.6
2017-Dec-11 03:53N 35°14' W 121°48'4 8.1
2017-Dec-11 03:27N 35°17' W 121°51'10 7.9
2017-Dec-11 02:12N 35°25' W 121°57'2 7.7
2017-Dec-11 01:54N 35°27' W 121°59'3 7.8
2017-Dec-11 01:30N 35°30' W 122°01'4 7.6
2017-Dec-11 01:00N 35°33' W 122°03'6 7.5
2017-Dec-11 00:09N 35°38' W 122°08'4 7.6
2017-Dec-10 23:38N 35°41' W 122°10'1 7.4
2017-Dec-10 23:30N 35°42' W 122°11'4 7.5
2017-Dec-10 23:00N 35°45' W 122°13'4 7.3
2017-Dec-10 22:30N 35°48' W 122°16'4 7.3
2017-Dec-10 22:00N 35°51' W 122°18'4 7.6
2017-Dec-10 21:30N 35°55' W 122°21'4 7.8
2017-Dec-10 21:00N 35°58' W 122°24'4 7.9
2017-Dec-10 20:30N 36°01' W 122°26'4 8.3
2017-Dec-10 20:00N 36°05' W 122°29'4 8.1
2017-Dec-10 19:30N 36°08' W 122°31'4 7.9
2017-Dec-10 19:00N 36°12' W 122°33'4 7.9
2017-Dec-10 18:30N 36°15' W 122°35'4 8.4
2017-Dec-10 18:00N 36°19' W 122°37'4 8.5
2017-Dec-10 17:30N 36°23' W 122°39'4 8.1
2017-Dec-10 17:00N 36°27' W 122°41'4 8.1
2017-Dec-10 16:30N 36°31' W 122°43'4 8.2
2017-Dec-10 16:00N 36°34' W 122°45'4 8.0
2017-Dec-10 15:30N 36°38' W 122°48'4 8.1
2017-Dec-10 15:00N 36°42' W 122°50'4 8.1
2017-Dec-10 14:30N 36°45' W 122°52'4 8.1
2017-Dec-10 14:00N 36°49' W 122°54'4 8.2
2017-Dec-10 13:30N 36°53' W 122°56'6 8.4
2017-Dec-10 12:46N 36°59' W 122°58'7 8.4
2017-Dec-10 11:56N 37°06' W 123°01'4 8.3
2017-Dec-10 11:29N 37°09' W 123°01'4 8.5
2017-Dec-10 11:00N 37°13' W 123°02'4 8.4
2017-Dec-10 10:30N 37°17' W 123°03'4 8.1
2017-Dec-10 10:00N 37°21' W 123°04'4 7.9
2017-Dec-10 09:30N 37°25' W 123°04'4 7.8
2017-Dec-10 09:00N 37°29' W 123°04'4 8.0
2017-Dec-10 08:30N 37°33' W 123°04'4 7.4
2017-Dec-10 08:00N 37°36' W 123°01'4 7.6
2017-Dec-10 07:30N 37°38' W 122°57'4 8.2
2017-Dec-10 07:00N 37°40' W 122°52'4 7.9
2017-Dec-10 06:30N 37°43' W 122°48'4 7.5
2017-Dec-10 06:00N 37°45' W 122°45'4 7.3
2017-Dec-10 05:30N 37°47' W 122°41'4 7.1
2017-Dec-10 05:00N 37°47' W 122°36'4 8.9
2017-Dec-10 04:30N 37°48' W 122°31'5 9.5
2017-Dec-10 04:01N 37°50' W 122°26'3 6.7
2017-Dec-10 03:30N 37°54' W 122°26'0 0.7
2017-Dec-10 03:00N 37°54' W 122°26'1 2.8
2017-Dec-10 02:30N 37°55' W 122°25'1 1.0
2017-Dec-10 01:58N 37°55' W 122°25'0 0.4
2017-Dec-10 01:29N 37°55' W 122°25'0 0.0
2017-Dec-10 00:59N 37°55' W 122°25'0 0.0
2017-Dec-10 00:23N 37°55' W 122°25'0 0.0
2017-Dec-09 23:59N 37°55' W 122°25'0 0.0
2017-Dec-09 23:29N 37°55' W 122°25'0 0.0
2017-Dec-09 22:47N 37°55' W 122°25'0 0.0
2017-Dec-09 22:29N 37°55' W 122°25'0 0.0
2017-Dec-09 21:59N 37°55' W 122°25'0 0.0
2017-Dec-09 21:29N 37°55' W 122°25'0 0.0
2017-Dec-09 20:59N 37°55' W 122°25'0 0.0
2017-Dec-09 20:29N 37°55' W 122°25'0 0.0
2017-Dec-09 19:59N 37°55' W 122°25'0 0.0
2017-Dec-09 19:26N 37°55' W 122°25'0 0.0
2017-Dec-09 18:59N 37°55' W 122°25'0 0.0
2017-Dec-09 18:29N 37°55' W 122°25'0 0.0
2017-Dec-09 17:59N 37°55' W 122°25'2 4.7
2017-Dec-09 17:30N 37°55' W 122°22'0 0.0
2017-Dec-09 16:57N 37°55' W 122°22'0 0.0
2017-Dec-09 16:30N 37°55' W 122°22'2 3.2
2017-Dec-09 16:00N 37°54' W 122°24'1 2.5
2017-Dec-09 15:30N 37°55' W 122°25'0 0.3
2017-Dec-09 15:01N 37°55' W 122°25'0 0.2
2017-Dec-09 14:30N 37°55' W 122°25'0 0.0
2017-Dec-09 14:00N 37°55' W 122°25'0 0.0
2017-Dec-09 13:27N 37°55' W 122°25'0 0.0
2017-Dec-09 13:00N 37°55' W 122°25'0 0.0
2017-Dec-09 12:30N 37°55' W 122°25'0 0.0
2017-Dec-09 11:57N 37°55' W 122°25'0 0.0
2017-Dec-09 11:30N 37°55' W 122°25'0 0.0
2017-Dec-09 11:00N 37°55' W 122°25'0 0.0
2017-Dec-09 10:30N 37°55' W 122°25'0 0.0
2017-Dec-09 09:57N 37°55' W 122°25'0 0.0
2017-Dec-09 09:30N 37°55' W 122°25'0 0.0
2017-Dec-09 08:57N 37°55' W 122°25'0 0.0
2017-Dec-09 08:21N 37°55' W 122°25'0 0.0
2017-Dec-09 07:57N 37°55' W 122°25'0 0.0
2017-Dec-09 07:27N 37°55' W 122°25'0 0.0
2017-Dec-09 06:51N 37°55' W 122°25'0 0.0
2017-Dec-09 06:27N 37°55' W 122°25'0 0.0
2017-Dec-09 06:00N 37°55' W 122°25'0 0.0
2017-Dec-09 05:15N 37°55' W 122°25'0 0.0
2017-Dec-09 04:54N 37°55' W 122°25'0 0.0
2017-Dec-09 04:24N 37°55' W 122°25'0 0.0
2017-Dec-09 04:00N 37°55' W 122°25'0 0.0
2017-Dec-09 03:30N 37°55' W 122°25'0 0.0
2017-Dec-09 03:00N 37°55' W 122°25'0 0.0
2017-Dec-09 02:30N 37°55' W 122°25'0 0.0
2017-Dec-09 01:57N 37°55' W 122°25'0 0.0
2017-Dec-09 01:30N 37°55' W 122°25'0 0.0
2017-Dec-09 01:00N 37°55' W 122°25'0 0.0
2017-Dec-09 00:30N 37°55' W 122°25'0 0.0
2017-Dec-09 00:00N 37°55' W 122°25'0 0.0
2017-Dec-08 23:30N 37°55' W 122°25'0 0.0
2017-Dec-08 23:00N 37°55' W 122°25'0 0.0
2017-Dec-08 22:30N 37°55' W 122°25'0 0.0
2017-Dec-08 21:54N 37°55' W 122°25'0 0.0
2017-Dec-08 21:21N 37°55' W 122°25'0 0.0
2017-Dec-08 21:00N 37°55' W 122°25'0 0.0
2017-Dec-08 20:27N 37°55' W 122°25'0 0.0
2017-Dec-08 20:00N 37°55' W 122°25'0 0.0
2017-Dec-08 19:24N 37°55' W 122°25'0 0.0
2017-Dec-08 19:00N 37°55' W 122°25'0 0.0
2017-Dec-08 18:27N 37°55' W 122°25'0 0.0
2017-Dec-08 18:00N 37°55' W 122°25'0 0.3
2017-Dec-08 17:30N 37°55' W 122°25'0 0.1
2017-Dec-08 17:00N 37°55' W 122°25'1 1.9
2017-Dec-08 16:30N 37°55' W 122°26'  
Track history (hours):
 
Tides and Currents Weather Stations Pressure Air Temp Water Temp Dewpoint Dewpoint Depression Visibility Wind Speed Wind Dir Waves Ship Positions

Mikiona

Owner: Sause Bros Inc, Coos Bay, OR. More information available from US FCC via Universal Licensing System and Coast Guard Vessel Documentation Center.

Last reported at 2017-Dec-18 16:25 UTC. Time now 2017-Dec-18 16:54 UTC.
Position N 37°09' W 122°57'.

Length 38 m; draft 4.5 m.

Type: Tow > 200 m length. MMSI: 367153070.

Date/timePositionNaut miles runAvg speedWind from/ knotsBaromVisibWave heightAir tempDewpointWater temp
2017-Dec-18 16:25N 37°09' W 122°57'27 8.3
2017-Dec-18 13:12N 36°44' W 122°43'2 8.2
2017-Dec-18 13:00N 36°42' W 122°43'4 7.5
2017-Dec-18 12:25N 36°38' W 122°40'3 7.5
2017-Dec-18 11:59N 36°35' W 122°39'4 7.5
2017-Dec-18 11:30N 36°32' W 122°37'4 7.7
2017-Dec-18 11:00N 36°29' W 122°35'4 7.7
2017-Dec-18 10:30N 36°25' W 122°33'4 7.6
2017-Dec-18 09:59N 36°22' W 122°30'4 7.6
2017-Dec-18 09:30N 36°18' W 122°29'4 7.6
2017-Dec-18 09:00N 36°15' W 122°27'4 7.5
2017-Dec-18 08:30N 36°11' W 122°25'4 7.1
2017-Dec-18 08:00N 36°08' W 122°23'4 7.0
2017-Dec-18 07:30N 36°05' W 122°21'4 7.1
2017-Dec-18 07:00N 36°02' W 122°19'4 7.1
2017-Dec-18 06:30N 35°59' W 122°17'4 7.1
2017-Dec-18 06:00N 35°56' W 122°14'4 7.3
2017-Dec-18 05:30N 35°53' W 122°12'4 7.4
2017-Dec-18 05:00N 35°50' W 122°09'4 7.4
2017-Dec-18 04:30N 35°47' W 122°07'4 7.0
2017-Dec-18 04:00N 35°44' W 122°05'3 6.9
2017-Dec-18 03:30N 35°41' W 122°03'3 6.9
2017-Dec-18 03:00N 35°38' W 122°00'3 6.8
2017-Dec-18 02:30N 35°35' W 121°58'4 7.2
2017-Dec-18 02:00N 35°31' W 121°56'4 7.1
2017-Dec-18 01:30N 35°28' W 121°54'3 6.9
2017-Dec-18 01:00N 35°25' W 121°52'3 6.7
2017-Dec-18 00:30N 35°23' W 121°50'3 6.7
2017-Dec-18 00:00N 35°20' W 121°48'3 6.5
2017-Dec-17 23:29N 35°17' W 121°45'3 6.3
2017-Dec-17 22:59N 35°14' W 121°43'20 6.2
2017-Dec-17 19:48N 34°57' W 121°31'11 5.9
2017-Dec-17 17:59N 34°48' W 121°24'5 5.8
2017-Dec-17 17:10N 34°44' W 121°21'1 5.8
2017-Dec-17 17:00N 34°43' W 121°21'3 5.7
2017-Dec-17 16:30N 34°41' W 121°19'3 5.6
2017-Dec-17 16:00N 34°38' W 121°17'3 5.6
2017-Dec-17 15:29N 34°36' W 121°16'3 5.3
2017-Dec-17 15:00N 34°34' W 121°14'3 5.1
2017-Dec-17 14:30N 34°32' W 121°12'3 5.2
2017-Dec-17 14:00N 34°29' W 121°10'2 4.9
2017-Dec-17 13:30N 34°27' W 121°09'2 4.7
2017-Dec-17 13:00N 34°25' W 121°08'2 4.8
2017-Dec-17 12:30N 34°23' W 121°06'2 4.7
2017-Dec-17 12:00N 34°21' W 121°05'2 4.6
2017-Dec-17 11:30N 34°19' W 121°03'2 4.6
2017-Dec-17 11:00N 34°17' W 121°02'2 4.7
2017-Dec-17 10:30N 34°15' W 121°00'2 4.5
2017-Dec-17 10:00N 34°13' W 120°59'2 4.9
2017-Dec-17 09:30N 34°11' W 120°57'2 4.9
2017-Dec-17 09:00N 34°09' W 120°56'2 4.7
2017-Dec-17 08:30N 34°07' W 120°55'2 4.7
2017-Dec-17 08:00N 34°05' W 120°53'2 4.5
2017-Dec-17 07:30N 34°03' W 120°52'2 4.4
2017-Dec-17 07:00N 34°02' W 120°50'2 4.8
2017-Dec-17 06:30N 34°00' W 120°47'2 4.7
2017-Dec-17 06:00N 33°59' W 120°45'2 4.6
2017-Dec-17 05:30N 33°58' W 120°42'2 4.7
2017-Dec-17 05:00N 33°57' W 120°40'2 5.0
2017-Dec-17 04:30N 33°56' W 120°37'2 4.6
2017-Dec-17 04:00N 33°55' W 120°35'2 4.7
2017-Dec-17 03:30N 33°53' W 120°33'2 4.5
2017-Dec-17 03:00N 33°52' W 120°30'2 4.5
2017-Dec-17 02:30N 33°51' W 120°28'2 4.5
2017-Dec-17 02:00N 33°50' W 120°25'2 4.6
2017-Dec-17 01:30N 33°49' W 120°23'2 4.6
2017-Dec-17 01:00N 33°48' W 120°21'2 4.6
2017-Dec-17 00:30N 33°47' W 120°18'2 4.6
2017-Dec-17 00:00N 33°46' W 120°16'2 4.4
2017-Dec-16 23:30N 33°45' W 120°13'2 4.4
2017-Dec-16 22:59N 33°44' W 120°11'2 4.6
2017-Dec-16 22:30N 33°43' W 120°08'3 4.9
2017-Dec-16 21:57N 33°43' W 120°05'3 5.3
2017-Dec-16 21:29N 33°43' W 120°02'3 5.8
2017-Dec-16 21:00N 33°43' W 119°59'3 6.1
2017-Dec-16 20:30N 33°43' W 119°55'4 6.9
2017-Dec-16 19:59N 33°43' W 119°51'3 7.2
2017-Dec-16 19:30N 33°42' W 119°47'4 7.8
2017-Dec-16 19:00N 33°42' W 119°42'4 7.9
2017-Dec-16 18:30N 33°42' W 119°37'4 8.0
2017-Dec-16 18:00N 33°42' W 119°32'4 8.0
2017-Dec-16 17:30N 33°42' W 119°27'4 8.0
2017-Dec-16 17:00N 33°42' W 119°23'4 8.4
2017-Dec-16 16:30N 33°42' W 119°18'4 8.3
2017-Dec-16 16:00N 33°42' W 119°13'4 8.3
2017-Dec-16 15:30N 33°41' W 119°08'4 8.7
2017-Dec-16 15:00N 33°41' W 119°02'4 8.7
2017-Dec-16 14:30N 33°41' W 118°57'4 8.4
2017-Dec-16 14:00N 33°41' W 118°52'4 8.5
2017-Dec-16 13:30N 33°40' W 118°47'4 8.5
2017-Dec-16 13:00N 33°40' W 118°42'9 8.8
2017-Dec-16 12:00N 33°40' W 118°31'5 8.7
2017-Dec-16 11:27N 33°40' W 118°26'9 6.6
2017-Dec-16 10:01N 33°42' W 118°15'0 6.5
2017-Dec-16 09:57N 33°43' W 118°15'1 2.2
2017-Dec-16 09:24N 33°44' W 118°16'4 0.1
2017-Dec-14 10:03N 33°46' W 118°13'0 0.0
2017-Dec-14 06:45N 33°46' W 118°13'0 0.0
2017-Dec-14 06:21N 33°46' W 118°13'12 0.3
2017-Dec-12 07:49N 33°36' W 118°21'2 8.0
2017-Dec-12 07:30N 33°36' W 118°24'4 8.1
2017-Dec-12 07:00N 33°36' W 118°29'4 8.0
2017-Dec-12 06:30N 33°36' W 118°34'4 7.9
2017-Dec-12 06:00N 33°36' W 118°39'4 8.1
2017-Dec-12 05:30N 33°37' W 118°44'4 8.3
2017-Dec-12 05:01N 33°37' W 118°49'4 8.2
2017-Dec-12 04:30N 33°38' W 118°54'4 8.1
2017-Dec-12 04:00N 33°38' W 118°58'4 8.0
2017-Dec-12 03:30N 33°38' W 119°03'4 8.4
2017-Dec-12 03:00N 33°38' W 119°08'4 8.2
2017-Dec-12 02:30N 33°39' W 119°13'4 7.9
2017-Dec-12 02:00N 33°39' W 119°18'4 8.1
2017-Dec-12 01:30N 33°39' W 119°23'4 8.0
2017-Dec-12 01:00N 33°39' W 119°27'4 8.1
2017-Dec-12 00:30N 33°39' W 119°32'4 8.2
2017-Dec-12 00:00N 33°38' W 119°37'4 8.3
2017-Dec-11 23:30N 33°38' W 119°42'4 8.0
2017-Dec-11 22:59N 33°38' W 119°47'4 7.8
2017-Dec-11 22:30N 33°37' W 119°52'4 8.1
2017-Dec-11 21:59N 33°37' W 119°57'4 8.0
2017-Dec-11 21:30N 33°39' W 120°01'4 8.0
2017-Dec-11 21:00N 33°40' W 120°05'4 7.8
2017-Dec-11 20:30N 33°42' W 120°10'4 7.4
2017-Dec-11 20:00N 33°43' W 120°14'4 7.6
2017-Dec-11 19:30N 33°44' W 120°18'4 7.5
2017-Dec-11 19:00N 33°44' W 120°23'4 7.4
2017-Dec-11 18:30N 33°44' W 120°27'4 7.6
2017-Dec-11 18:00N 33°45' W 120°32'4 7.9
2017-Dec-11 17:30N 33°45' W 120°36'4 7.4
2017-Dec-11 17:00N 33°47' W 120°40'4 7.8
2017-Dec-11 16:30N 33°51' W 120°42'4 7.8
2017-Dec-11 16:00N 33°54' W 120°45'4 7.7
2017-Dec-11 15:30N 33°57' W 120°47'4 7.7
2017-Dec-11 15:01N 34°01' W 120°50'4 7.7
2017-Dec-11 14:31N 34°04' W 120°52'4 7.9
2017-Dec-11 14:00N 34°07' W 120°55'4 8.0
2017-Dec-11 13:31N 34°11' W 120°57'4 7.8
2017-Dec-11 13:01N 34°14' W 121°00'4 7.6
2017-Dec-11 12:31N 34°17' W 121°03'4 7.8
2017-Dec-11 12:00N 34°20' W 121°05'4 7.6
2017-Dec-11 11:30N 34°23' W 121°08'4 7.7
2017-Dec-11 11:00N 34°27' W 121°10'4 7.9
2017-Dec-11 10:30N 34°30' W 121°13'4 8.0
2017-Dec-11 10:01N 34°33' W 121°16'4 8.0
2017-Dec-11 09:30N 34°37' W 121°18'4 8.0
2017-Dec-11 09:00N 34°40' W 121°21'4 8.0
2017-Dec-11 08:30N 34°43' W 121°23'4 8.0
2017-Dec-11 08:00N 34°47' W 121°26'4 7.9
2017-Dec-11 07:30N 34°50' W 121°29'4 7.7
2017-Dec-11 07:00N 34°53' W 121°32'4 7.9
2017-Dec-11 06:30N 34°57' W 121°34'4 8.0
2017-Dec-11 06:00N 34°60' W 121°37'4 8.0
2017-Dec-11 05:30N 35°03' W 121°40'4 8.0
2017-Dec-11 05:00N 35°07' W 121°42'4 7.9
2017-Dec-11 04:30N 35°10' W 121°45'5 7.6
2017-Dec-11 03:53N 35°14' W 121°48'4 8.1
2017-Dec-11 03:27N 35°17' W 121°51'10 7.9
2017-Dec-11 02:12N 35°25' W 121°57'2 7.7
2017-Dec-11 01:54N 35°27' W 121°59'3 7.8
2017-Dec-11 01:30N 35°30' W 122°01'4 7.6
2017-Dec-11 01:00N 35°33' W 122°03'6 7.5
2017-Dec-11 00:09N 35°38' W 122°08'4 7.6
2017-Dec-10 23:38N 35°41' W 122°10'1 7.4
2017-Dec-10 23:30N 35°42' W 122°11'4 7.5
2017-Dec-10 23:00N 35°45' W 122°13'4 7.3
2017-Dec-10 22:30N 35°48' W 122°16'4 7.3
2017-Dec-10 22:00N 35°51' W 122°18'4 7.6
2017-Dec-10 21:30N 35°55' W 122°21'4 7.8
2017-Dec-10 21:00N 35°58' W 122°24'4 7.9
2017-Dec-10 20:30N 36°01' W 122°26'4 8.3
2017-Dec-10 20:00N 36°05' W 122°29'4 8.1
2017-Dec-10 19:30N 36°08' W 122°31'4 7.9
2017-Dec-10 19:00N 36°12' W 122°33'4 7.9
2017-Dec-10 18:30N 36°15' W 122°35'4 8.4
2017-Dec-10 18:00N 36°19' W 122°37'4 8.5
2017-Dec-10 17:30N 36°23' W 122°39'4 8.1
2017-Dec-10 17:00N 36°27' W 122°41'4 8.1
2017-Dec-10 16:30N 36°31' W 122°43'4 8.2
2017-Dec-10 16:00N 36°34' W 122°45'4 8.0
2017-Dec-10 15:30N 36°38' W 122°48'4 8.1
2017-Dec-10 15:00N 36°42' W 122°50'4 8.1
2017-Dec-10 14:30N 36°45' W 122°52'4 8.1
2017-Dec-10 14:00N 36°49' W 122°54'4 8.2
2017-Dec-10 13:30N 36°53' W 122°56'6 8.4
2017-Dec-10 12:46N 36°59' W 122°58'7 8.4
2017-Dec-10 11:56N 37°06' W 123°01'4 8.3
2017-Dec-10 11:29N 37°09' W 123°01'4 8.5
2017-Dec-10 11:00N 37°13' W 123°02'4 8.4
2017-Dec-10 10:30N 37°17' W 123°03'4 8.1
2017-Dec-10 10:00N 37°21' W 123°04'4 7.9
2017-Dec-10 09:30N 37°25' W 123°04'4 7.8
2017-Dec-10 09:00N 37°29' W 123°04'4 8.0
2017-Dec-10 08:30N 37°33' W 123°04'4 7.4
2017-Dec-10 08:00N 37°36' W 123°01'4 7.6
2017-Dec-10 07:30N 37°38' W 122°57'4 8.2
2017-Dec-10 07:00N 37°40' W 122°52'4 7.9
2017-Dec-10 06:30N 37°43' W 122°48'4 7.5
2017-Dec-10 06:00N 37°45' W 122°45'4 7.3
2017-Dec-10 05:30N 37°47' W 122°41'4 7.1
2017-Dec-10 05:00N 37°47' W 122°36'4 8.9
2017-Dec-10 04:30N 37°48' W 122°31'5 9.5
2017-Dec-10 04:01N 37°50' W 122°26'3 6.7
2017-Dec-10 03:30N 37°54' W 122°26'0 0.7
2017-Dec-10 03:00N 37°54' W 122°26'1 2.8
2017-Dec-10 02:30N 37°55' W 122°25'1 1.0
2017-Dec-10 01:58N 37°55' W 122°25'0 0.4
2017-Dec-10 01:29N 37°55' W 122°25'0 0.0
2017-Dec-10 00:59N 37°55' W 122°25'0 0.0
2017-Dec-10 00:23N 37°55' W 122°25'0 0.0
2017-Dec-09 23:59N 37°55' W 122°25'0 0.0
2017-Dec-09 23:29N 37°55' W 122°25'0 0.0
2017-Dec-09 22:47N 37°55' W 122°25'0 0.0
2017-Dec-09 22:29N 37°55' W 122°25'0 0.0
2017-Dec-09 21:59N 37°55' W 122°25'0 0.0
2017-Dec-09 21:29N 37°55' W 122°25'0 0.0
2017-Dec-09 20:59N 37°55' W 122°25'0 0.0
2017-Dec-09 20:29N 37°55' W 122°25'0 0.0
2017-Dec-09 19:59N 37°55' W 122°25'0 0.0
2017-Dec-09 19:26N 37°55' W 122°25'0 0.0
2017-Dec-09 18:59N 37°55' W 122°25'0 0.0
2017-Dec-09 18:29N 37°55' W 122°25'0 0.0
2017-Dec-09 17:59N 37°55' W 122°25'2 4.7
2017-Dec-09 17:30N 37°55' W 122°22'0 0.0
2017-Dec-09 16:57N 37°55' W 122°22'0 0.0
2017-Dec-09 16:30N 37°55' W 122°22'2 3.2
2017-Dec-09 16:00N 37°54' W 122°24'1 2.5
2017-Dec-09 15:30N 37°55' W 122°25'0 0.3
2017-Dec-09 15:01N 37°55' W 122°25'0 0.2
2017-Dec-09 14:30N 37°55' W 122°25'0 0.0
2017-Dec-09 14:00N 37°55' W 122°25'0 0.0
2017-Dec-09 13:27N 37°55' W 122°25'0 0.0
2017-Dec-09 13:00N 37°55' W 122°25'0 0.0
2017-Dec-09 12:30N 37°55' W 122°25'0 0.0
2017-Dec-09 11:57N 37°55' W 122°25'0 0.0
2017-Dec-09 11:30N 37°55' W 122°25'0 0.0
2017-Dec-09 11:00N 37°55' W 122°25'0 0.0
2017-Dec-09 10:30N 37°55' W 122°25'0 0.0
2017-Dec-09 09:57N 37°55' W 122°25'0 0.0
2017-Dec-09 09:30N 37°55' W 122°25'0 0.0
2017-Dec-09 08:57N 37°55' W 122°25'0 0.0
2017-Dec-09 08:21N 37°55' W 122°25'0 0.0
2017-Dec-09 07:57N 37°55' W 122°25'0 0.0
2017-Dec-09 07:27N 37°55' W 122°25'0 0.0
2017-Dec-09 06:51N 37°55' W 122°25'0 0.0
2017-Dec-09 06:27N 37°55' W 122°25'0 0.0
2017-Dec-09 06:00N 37°55' W 122°25'0 0.0
2017-Dec-09 05:15N 37°55' W 122°25'0 0.0
2017-Dec-09 04:54N 37°55' W 122°25'0 0.0
2017-Dec-09 04:24N 37°55' W 122°25'0 0.0
2017-Dec-09 04:00N 37°55' W 122°25'0 0.0
2017-Dec-09 03:30N 37°55' W 122°25'0 0.0
2017-Dec-09 03:00N 37°55' W 122°25'0 0.0
2017-Dec-09 02:30N 37°55' W 122°25'0 0.0
2017-Dec-09 01:57N 37°55' W 122°25'0 0.0
2017-Dec-09 01:30N 37°55' W 122°25'0 0.0
2017-Dec-09 01:00N 37°55' W 122°25'0 0.0
2017-Dec-09 00:30N 37°55' W 122°25'0 0.0
2017-Dec-09 00:00N 37°55' W 122°25'0 0.0
2017-Dec-08 23:30N 37°55' W 122°25'0 0.0
2017-Dec-08 23:00N 37°55' W 122°25'0 0.0
2017-Dec-08 22:30N 37°55' W 122°25'0 0.0
2017-Dec-08 21:54N 37°55' W 122°25'0 0.0
2017-Dec-08 21:21N 37°55' W 122°25'0 0.0
2017-Dec-08 21:00N 37°55' W 122°25'0 0.0
2017-Dec-08 20:27N 37°55' W 122°25'0 0.0
2017-Dec-08 20:00N 37°55' W 122°25'0 0.0
2017-Dec-08 19:24N 37°55' W 122°25'0 0.0
2017-Dec-08 19:00N 37°55' W 122°25'0 0.0
2017-Dec-08 18:27N 37°55' W 122°25'0 0.0
2017-Dec-08 18:00N 37°55' W 122°25'0 0.3
2017-Dec-08 17:30N 37°55' W 122°25'0 0.1
2017-Dec-08 17:00N 37°55' W 122°25'1 1.9
2017-Dec-08 16:30N 37°55' W 122°26'  

Dump ship's entire track history